createdAt,value
2018-01-26T00:01:12.663Z,133.23
2018-01-26T00:03:41.176Z,133.70
2018-01-26T00:06:10.547Z,123.33
2018-01-26T00:08:39.052Z,137.47
2018-01-26T00:11:07.560Z,148.00
2018-01-26T00:13:36.323Z,146.43
2018-01-26T00:16:05.665Z,132.83
2018-01-26T00:18:34.227Z,69.90
2018-01-26T00:21:03.822Z,63.00
2018-01-26T00:23:33.087Z,57.43
2018-01-26T00:26:01.646Z,52.07
2018-01-26T00:28:30.187Z,45.47
2018-01-26T00:30:59.443Z,46.80
2018-01-26T00:33:27.939Z,46.30
2018-01-26T00:35:56.548Z,50.30
2018-01-26T00:38:25.867Z,50.70
2018-01-26T00:40:55.122Z,43.20
2018-01-26T00:43:23.899Z,51.13
2018-01-26T00:45:52.391Z,45.90
2018-01-26T00:48:20.887Z,49.90
2018-01-26T00:50:49.499Z,50.50
2018-01-26T00:53:18.810Z,46.03
2018-01-26T00:55:47.363Z,56.13
2018-01-26T00:58:16.730Z,46.90
2018-01-26T01:00:45.264Z,58.53
2018-01-26T01:03:14.583Z,71.37
2018-01-26T01:05:43.139Z,43.23
2018-01-26T01:08:12.461Z,37.90
2018-01-26T01:10:41.007Z,40.50
2018-01-26T01:13:10.510Z,46.70
2018-01-26T01:15:39.000Z,42.67
2018-01-26T01:18:08.267Z,41.60
2018-01-26T01:20:36.830Z,43.47
2018-01-26T01:23:05.331Z,40.20
2018-01-26T01:25:33.843Z,36.87
2018-01-26T01:28:02.545Z,38.93
2018-01-26T01:30:31.910Z,45.30
2018-01-26T01:33:00.407Z,41.20
2018-01-26T01:35:28.953Z,48.53
2018-01-26T01:37:57.507Z,44.70
2018-01-26T01:40:26.007Z,42.10
2018-01-26T01:42:54.648Z,85.27
2018-01-26T01:45:23.150Z,54.90
2018-01-26T01:47:51.704Z,50.63
2018-01-26T01:50:20.266Z,51.93
2018-01-26T01:52:48.825Z,49.00
2018-01-26T01:55:17.379Z,52.40
2018-01-26T01:57:46.019Z,55.20
2018-01-26T02:00:14.523Z,48.00
2018-01-26T02:02:43.028Z,43.00
2018-01-26T02:05:12.404Z,42.37
2018-01-26T02:07:40.957Z,36.87
2018-01-26T02:10:09.458Z,54.07
2018-01-26T02:12:37.998Z,44.93
2018-01-26T02:15:06.499Z,40.00
2018-01-26T02:17:34.989Z,47.70
2018-01-26T02:20:03.713Z,43.47
2018-01-26T02:22:32.976Z,41.40
2018-01-26T02:25:01.554Z,52.00
2018-01-26T02:27:30.475Z,41.47
2018-01-26T02:29:58.971Z,48.73
2018-01-26T02:32:28.220Z,44.33
2018-01-26T02:34:56.816Z,45.30
2018-01-26T02:37:25.315Z,49.87
2018-01-26T02:39:53.819Z,59.50
2018-01-26T02:42:23.575Z,44.10
2018-01-26T02:44:52.140Z,49.17
2018-01-26T02:47:20.642Z,47.40
2018-01-26T02:49:49.643Z,54.40
2018-01-26T02:52:18.143Z,52.87
2018-01-26T02:54:46.647Z,46.57
2018-01-26T02:57:16.138Z,42.73
2018-01-26T02:59:44.632Z,47.90
2018-01-26T03:02:13.896Z,50.10
2018-01-26T03:04:42.439Z,55.90
2018-01-26T03:07:10.935Z,53.93
2018-01-26T03:09:39.435Z,55.33
2018-01-26T03:12:08.075Z,47.50
2018-01-26T03:14:37.331Z,53.57
2018-01-26T03:17:05.831Z,53.87
2018-01-26T03:19:35.375Z,62.33
2018-01-26T03:22:03.944Z,65.20
2018-01-26T03:24:33.206Z,73.03
2018-01-26T03:27:01.749Z,65.43
2018-01-26T03:29:30.251Z,69.13
2018-01-26T03:31:58.803Z,73.77
2018-01-26T03:34:27.622Z,52.27
2018-01-26T03:36:56.172Z,58.93
2018-01-26T03:39:24.724Z,60.73
2018-01-26T03:41:53.326Z,55.30
2018-01-26T03:44:22.580Z,39.93
2018-01-26T03:46:51.115Z,45.60
2018-01-26T03:49:20.431Z,43.03
2018-01-26T03:51:48.936Z,38.47
2018-01-26T03:54:17.428Z,39.70
2018-01-26T03:56:45.999Z,33.03
2018-01-26T03:59:14.490Z,34.23
2018-01-26T04:01:42.983Z,38.43
2018-01-26T04:04:11.682Z,32.27
2018-01-26T04:06:41.013Z,30.47
2018-01-26T04:09:09.571Z,34.87
2018-01-26T04:11:38.463Z,30.03
2018-01-26T04:14:07.785Z,35.17
2018-01-26T04:16:36.335Z,34.67
2018-01-26T04:19:04.896Z,38.03
2018-01-26T04:21:33.386Z,30.80
2018-01-26T04:24:01.892Z,30.60
2018-01-26T04:26:32.111Z,31.13
2018-01-26T04:29:01.440Z,33.27
2018-01-26T04:31:29.948Z,34.10
2018-01-26T04:33:58.490Z,34.67
2018-01-26T04:36:27.752Z,28.97
2018-01-26T04:38:56.319Z,31.83
2018-01-26T04:41:25.114Z,37.83
2018-01-26T04:43:53.673Z,43.40
2018-01-26T04:46:22.231Z,52.40
2018-01-26T04:48:51.627Z,154.67
2018-01-26T04:51:20.882Z,138.80
2018-01-26T04:53:49.469Z,123.77
2018-01-26T04:56:18.067Z,115.10
2018-01-26T04:58:46.580Z,106.33
2018-01-26T05:01:15.912Z,103.00
2018-01-26T05:03:44.651Z,108.40
2018-01-26T05:06:13.158Z,128.07
2018-01-26T05:08:42.418Z,81.33
2018-01-26T05:11:11.397Z,82.13
2018-01-26T05:13:39.899Z,84.03
2018-01-26T05:16:08.407Z,82.00
2018-01-26T05:18:37.722Z,79.40
2018-01-26T05:21:06.234Z,82.17
2018-01-26T05:23:34.738Z,88.27
2018-01-26T05:26:03.447Z,91.70
2018-01-26T05:28:32.717Z,88.10
2018-01-26T05:31:01.279Z,79.10
2018-01-26T05:33:29.973Z,87.57
2018-01-26T05:35:59.313Z,75.57
2018-01-26T05:38:27.815Z,104.90
2018-01-26T05:40:56.612Z,82.80
2018-01-26T05:43:25.112Z,66.13
2018-01-26T05:45:53.614Z,64.20
2018-01-26T05:48:23.263Z,52.20
2018-01-26T05:50:51.820Z,48.83
2018-01-26T05:53:21.168Z,44.27
2018-01-26T05:55:49.996Z,38.33
2018-01-26T05:58:19.259Z,37.87
2018-01-26T06:00:47.787Z,37.67
2018-01-26T06:03:17.184Z,40.33
2018-01-26T06:05:46.501Z,58.63
2018-01-26T06:08:15.014Z,53.30
2018-01-26T06:10:43.713Z,68.27
2018-01-26T06:13:12.257Z,66.33
2018-01-26T06:15:40.812Z,56.23
2018-01-26T06:18:10.298Z,49.97
2018-01-26T06:20:38.816Z,45.87
2018-01-26T06:23:07.375Z,41.97
2018-01-26T06:25:36.112Z,50.27
2018-01-26T06:28:04.715Z,40.60
2018-01-26T06:30:33.251Z,33.70
2018-01-26T06:33:02.579Z,29.53
2018-01-26T06:35:31.083Z,25.00
2018-01-26T06:37:59.571Z,39.77
2018-01-26T06:40:28.272Z,34.43
2018-01-26T06:42:56.835Z,31.07
2018-01-26T06:45:25.351Z,31.77
2018-01-26T06:47:54.816Z,37.40
2018-01-26T06:50:23.367Z,31.90
2018-01-26T06:52:51.928Z,32.47
2018-01-26T06:55:21.398Z,36.93
2018-01-26T06:57:49.979Z,31.60
2018-01-26T07:00:18.475Z,36.60
2018-01-26T07:02:47.342Z,35.50
2018-01-26T07:05:15.847Z,44.63
2018-01-26T07:07:44.363Z,42.97
2018-01-26T07:10:13.847Z,33.83
2018-01-26T07:12:43.118Z,27.57
2018-01-26T07:15:11.602Z,27.00
2018-01-26T07:17:40.471Z,30.83
2018-01-26T07:20:08.977Z,34.87
2018-01-26T07:22:37.480Z,31.80
2018-01-26T07:25:06.908Z,37.73
2018-01-26T07:27:35.428Z,44.57
2018-01-26T07:30:04.010Z,48.57
2018-01-26T07:32:32.802Z,52.87
2018-01-26T07:35:01.308Z,63.03
2018-01-26T07:37:29.811Z,53.83
2018-01-26T07:39:59.215Z,56.57
2018-01-26T07:42:28.529Z,60.20
2018-01-26T07:44:57.019Z,62.73
2018-01-26T07:47:25.755Z,68.57
2018-01-26T07:49:54.283Z,56.87
2018-01-26T07:52:22.773Z,52.83
2018-01-26T07:54:51.425Z,63.40
2018-01-26T07:57:20.734Z,59.73
2018-01-26T07:59:49.987Z,64.63
2018-01-26T08:02:18.591Z,78.13
2018-01-26T08:04:47.100Z,62.50
2018-01-26T08:07:15.719Z,59.30
2018-01-26T08:09:44.592Z,67.77
2018-01-26T08:12:13.084Z,65.97
2018-01-26T08:14:41.575Z,580.73
2018-01-26T08:17:10.492Z,69.57
2018-01-26T08:19:39.809Z,40.20
2018-01-26T08:22:09.101Z,52.70
2018-01-26T08:24:38.660Z,53.90
2018-01-26T08:27:07.144Z,52.93
2018-01-26T08:29:36.407Z,45.40
2018-01-26T08:32:05.017Z,47.67
2018-01-26T08:34:33.567Z,43.87
2018-01-26T08:37:02.063Z,38.93
2018-01-26T08:39:31.028Z,35.67
2018-01-26T08:41:59.515Z,34.30
2018-01-26T08:44:28.015Z,35.93
2018-01-26T08:46:56.583Z,28.93
2018-01-26T08:49:25.085Z,31.23
2018-01-26T08:51:53.636Z,31.90
2018-01-26T08:54:22.236Z,33.10
2018-01-26T08:56:50.755Z,33.53
2018-01-26T08:59:19.299Z,29.10
2018-01-26T09:01:47.823Z,32.13
2018-01-26T09:04:16.338Z,33.80
2018-01-26T09:06:44.835Z,30.80
2018-01-26T09:09:13.511Z,34.50
2018-01-26T09:11:42.024Z,35.80
2018-01-26T09:14:11.357Z,33.10
2018-01-26T09:16:40.104Z,24.97
2018-01-26T09:19:08.596Z,31.57
2018-01-26T09:21:37.097Z,27.90
2018-01-26T09:24:05.637Z,29.00
2018-01-26T09:26:34.124Z,29.10
2018-01-26T09:29:02.612Z,36.10
2018-01-26T09:31:31.436Z,34.80
2018-01-26T09:34:00.691Z,30.40
2018-01-26T09:36:29.188Z,33.43
2018-01-26T09:38:58.078Z,40.70
2018-01-26T09:41:26.571Z,39.33
2018-01-26T09:43:55.068Z,41.67
2018-01-26T09:46:24.395Z,37.27
2018-01-26T09:48:52.927Z,44.07
2018-01-26T09:51:21.499Z,39.33
2018-01-26T09:53:50.059Z,41.00
2018-01-26T09:56:18.554Z,32.80
2018-01-26T09:58:47.048Z,29.73
2018-01-26T10:01:15.734Z,28.70
2018-01-26T10:03:44.279Z,38.73
2018-01-26T10:06:12.772Z,37.33
2018-01-26T10:08:41.364Z,26.00
2018-01-26T10:11:09.928Z,27.33
2018-01-26T10:13:38.430Z,27.80
2018-01-26T10:16:07.735Z,23.47
2018-01-26T10:18:36.216Z,32.70
2018-01-26T10:21:05.478Z,23.97
2018-01-26T10:23:34.212Z,27.20
2018-01-26T10:26:02.697Z,20.07
2018-01-26T10:28:31.233Z,25.73
2018-01-26T10:31:00.535Z,27.37
2018-01-26T10:33:29.791Z,39.17
2018-01-26T10:35:58.282Z,37.90
2018-01-26T10:38:27.579Z,30.03
2018-01-26T10:40:56.086Z,28.07
2018-01-26T10:43:24.571Z,36.37
2018-01-26T10:45:53.115Z,28.57
2018-01-26T10:48:21.635Z,29.30
2018-01-26T10:50:50.895Z,34.53
2018-01-26T10:53:19.427Z,33.30
2018-01-26T10:55:48.727Z,35.63
2018-01-26T10:58:17.977Z,25.10
2018-01-26T11:00:46.583Z,29.60
2018-01-26T11:03:15.075Z,33.43
2018-01-26T11:05:44.347Z,32.83
2018-01-26T11:08:13.051Z,29.50
2018-01-26T11:10:41.611Z,25.00
2018-01-26T11:13:10.102Z,21.33
2018-01-26T11:15:38.720Z,21.63
2018-01-26T11:18:07.982Z,23.10
2018-01-26T11:20:36.471Z,22.47
2018-01-26T11:23:05.008Z,14.63
2018-01-26T11:25:33.499Z,22.17
2018-01-26T11:28:01.991Z,13.53
2018-01-26T11:30:30.827Z,22.43
2018-01-26T11:33:00.144Z,18.03
2018-01-26T11:35:29.412Z,29.57
2018-01-26T11:37:58.374Z,21.37
2018-01-26T11:40:26.863Z,22.20
2018-01-26T11:42:55.364Z,24.70
2018-01-26T11:45:24.160Z,27.17
2018-01-26T11:47:52.732Z,43.00
2018-01-26T11:50:21.243Z,20.47
2018-01-26T11:52:50.699Z,18.97
2018-01-26T11:55:19.188Z,17.47
2018-01-26T11:57:47.740Z,24.60
2018-01-26T12:00:16.603Z,30.47
2018-01-26T12:02:45.912Z,13.27
2018-01-26T12:05:15.162Z,17.87
2018-01-26T12:07:43.835Z,20.53
2018-01-26T12:10:12.319Z,14.20
2018-01-26T12:12:41.583Z,12.50
2018-01-26T12:15:10.141Z,16.33
2018-01-26T12:17:39.392Z,12.63
2018-01-26T12:20:07.936Z,27.73
2018-01-26T12:22:37.270Z,14.37
2018-01-26T12:25:05.787Z,13.93
2018-01-26T12:27:34.304Z,12.87
2018-01-26T12:30:03.988Z,13.73
2018-01-26T12:32:33.260Z,12.00
2018-01-26T12:35:01.743Z,27.80
2018-01-26T12:37:31.043Z,22.83
2018-01-26T12:39:59.547Z,17.37
2018-01-26T12:42:28.103Z,18.60
2018-01-26T12:44:56.695Z,17.30
2018-01-26T12:47:25.178Z,12.43
2018-01-26T12:49:53.656Z,14.23
2018-01-26T12:52:22.363Z,14.80
2018-01-26T12:54:50.842Z,16.13
2018-01-26T12:57:19.348Z,23.97
2018-01-26T12:59:48.823Z,15.23
2018-01-26T13:02:17.315Z,22.70
2018-01-26T13:04:46.603Z,25.33
2018-01-26T13:07:15.163Z,19.37
2018-01-26T13:09:43.647Z,14.97
2018-01-26T13:12:12.128Z,19.83
2018-01-26T13:14:40.913Z,45.13
2018-01-26T13:17:09.394Z,17.60
2018-01-26T13:19:37.944Z,26.90
2018-01-26T13:22:06.479Z,19.77
2018-01-26T13:24:35.038Z,18.37
2018-01-26T13:27:03.531Z,17.57
2018-01-26T13:29:32.152Z,27.97
2018-01-26T13:32:01.408Z,19.60
2018-01-26T13:34:30.725Z,17.77
2018-01-26T13:36:59.484Z,18.87
2018-01-26T13:39:27.968Z,19.73
2018-01-26T13:41:56.454Z,15.03
2018-01-26T13:44:25.044Z,17.13
2018-01-26T13:46:53.524Z,26.23
2018-01-26T13:49:22.075Z,16.80
2018-01-26T13:51:50.831Z,18.93
2018-01-26T13:54:20.087Z,19.23
2018-01-26T13:56:48.564Z,17.90
2018-01-26T13:59:17.327Z,17.80
2018-01-26T14:01:45.816Z,17.30
2018-01-26T14:04:14.303Z,45.27
2018-01-26T14:06:43.092Z,18.77
2018-01-26T14:09:11.580Z,19.43
2018-01-26T14:11:40.070Z,16.57
2018-01-26T14:14:08.603Z,24.83
2018-01-26T14:16:37.855Z,22.77
2018-01-26T14:19:06.402Z,23.60
2018-01-26T14:21:35.156Z,19.47
2018-01-26T14:24:03.643Z,27.13
2018-01-26T14:26:33.644Z,27.07
2018-01-26T14:29:02.197Z,24.50
2018-01-26T14:31:30.711Z,37.07
2018-01-26T14:33:59.265Z,70.57
2018-01-26T14:36:27.831Z,27.00
2018-01-26T14:38:56.326Z,28.57
2018-01-26T14:41:24.871Z,35.17
2018-01-26T14:43:54.328Z,88.23
2018-01-26T14:46:22.814Z,29.93
2018-01-26T14:48:51.307Z,30.70
2018-01-26T14:51:20.066Z,45.30
2018-01-26T14:53:48.557Z,34.10
2018-01-26T14:56:17.051Z,48.33
2018-01-26T14:58:45.607Z,30.57
2018-01-26T15:01:14.087Z,25.57
2018-01-26T15:03:42.579Z,26.67
2018-01-26T15:06:11.115Z,113.50
2018-01-26T15:08:39.604Z,48.87
2018-01-26T15:11:08.153Z,30.23
2018-01-26T15:13:36.700Z,42.53
2018-01-26T15:16:05.190Z,113.83
2018-01-26T15:18:33.700Z,73.27
2018-01-26T15:21:02.299Z,107.97
2018-01-26T15:23:30.869Z,54.37
2018-01-26T15:25:59.360Z,40.57
2018-01-26T15:28:28.128Z,40.67
2018-01-26T15:30:57.415Z,39.97
2018-01-26T15:33:26.793Z,44.53
2018-01-26T15:35:56.094Z,47.10
2018-01-26T15:38:24.599Z,30.27
2018-01-26T15:40:53.884Z,39.73
2018-01-26T15:43:22.480Z,32.40
2018-01-26T15:45:51.032Z,48.43
2018-01-26T15:48:19.518Z,57.03
2018-01-26T15:50:48.047Z,67.93
2018-01-26T15:53:17.328Z,66.97
2018-01-26T15:55:46.647Z,55.43
2018-01-26T15:58:16.087Z,73.57
2018-01-26T16:00:44.597Z,97.37
2018-01-26T16:03:13.575Z,112.43
2018-01-26T16:05:42.123Z,108.67
2018-01-26T16:08:10.656Z,116.37
2018-01-26T16:10:39.176Z,120.43
2018-01-26T16:13:07.934Z,132.13
2018-01-26T16:15:36.511Z,136.53
2018-01-26T16:18:05.022Z,189.10
2018-01-26T16:20:34.833Z,264.07
2018-01-26T16:23:03.329Z,149.13
2018-01-26T16:25:31.856Z,270.27
2018-01-26T16:28:00.408Z,433.20
2018-01-26T16:30:29.789Z,346.60
2018-01-26T16:32:58.372Z,398.10
2018-01-26T16:35:27.679Z,434.87
2018-01-26T16:37:56.167Z,484.07
2018-01-26T16:40:24.679Z,462.90
2018-01-26T16:42:53.323Z,485.67
2018-01-26T16:45:21.886Z,451.53
2018-01-26T16:47:50.397Z,407.57
2018-01-26T16:50:20.110Z,353.10
2018-01-26T16:52:50.463Z,446.07
2018-01-26T16:55:20.008Z,552.27
2018-01-26T16:57:48.519Z,579.37
2018-01-26T17:00:17.139Z,607.47
2018-01-26T17:02:45.687Z,459.90
2018-01-26T17:05:14.188Z,431.37
2018-01-26T17:07:43.457Z,774.17
2018-01-26T17:10:12.019Z,587.27
2018-01-26T17:12:40.584Z,620.63
2018-01-26T17:15:09.111Z,545.00
2018-01-26T17:17:38.589Z,859.03
2018-01-26T17:20:07.083Z,938.27
2018-01-26T17:22:35.661Z,948.57
2018-01-26T17:25:04.207Z,877.57
2018-01-26T17:27:32.702Z,614.10
2018-01-26T17:30:01.211Z,459.80
2018-01-26T17:32:30.198Z,468.20
2018-01-26T17:34:58.707Z,626.90
2018-01-26T17:37:27.211Z,618.80
2018-01-26T17:39:55.791Z,550.13
2018-01-26T17:42:24.309Z,470.77
2018-01-26T17:44:52.839Z,357.07
2018-01-26T17:47:21.488Z,324.57
2018-01-26T17:49:50.043Z,246.83
2018-01-26T17:52:18.542Z,204.40
2018-01-26T17:54:47.139Z,182.13
2018-01-26T17:57:15.863Z,192.03
2018-01-26T17:59:44.449Z,225.27
2018-01-26T18:02:13.311Z,219.47
2018-01-26T18:04:42.611Z,317.83
2018-01-26T18:07:11.974Z,235.30
2018-01-26T18:09:41.447Z,309.23
2018-01-26T18:12:09.967Z,288.10
2018-01-26T18:14:38.468Z,295.53
2018-01-26T18:17:07.135Z,326.53
2018-01-26T18:19:35.765Z,359.47
2018-01-26T18:22:05.029Z,376.50
2018-01-26T18:24:33.733Z,299.03
2018-01-26T18:27:03.056Z,237.07
2018-01-26T18:29:31.555Z,224.90
2018-01-26T18:32:00.311Z,219.87
2018-01-26T18:34:29.671Z,232.47
2018-01-26T18:36:58.175Z,282.07
2018-01-26T18:39:26.813Z,334.87
2018-01-26T18:41:55.387Z,315.50
2018-01-26T18:44:23.903Z,367.27
2018-01-26T18:46:53.483Z,337.47
2018-01-26T18:49:22.050Z,352.77
2018-01-26T18:51:50.767Z,327.13
2018-01-26T18:54:19.483Z,305.03
2018-01-26T18:56:48.066Z,307.10
2018-01-26T18:59:17.329Z,342.00
2018-01-26T19:01:46.084Z,332.83
2018-01-26T19:04:14.591Z,351.60
2018-01-26T19:06:43.942Z,348.87
2018-01-26T19:09:12.635Z,417.63
2018-01-26T19:11:41.934Z,524.50
2018-01-26T19:14:10.440Z,462.93
2018-01-26T19:16:39.048Z,485.70
2018-01-26T19:19:08.307Z,460.63
2018-01-26T19:21:36.844Z,423.10
2018-01-26T19:24:05.580Z,417.00
2018-01-26T19:26:34.839Z,396.93
2018-01-26T19:29:03.348Z,321.57
2018-01-26T19:31:32.244Z,214.87
2018-01-26T19:34:01.736Z,123.03
2018-01-26T19:36:30.239Z,120.63
2018-01-26T19:38:58.785Z,149.10
2018-01-26T19:41:27.284Z,833.90
2018-01-26T19:43:55.800Z,939.53
2018-01-26T19:46:24.344Z,977.70
2018-01-26T19:48:52.832Z,626.37
2018-01-26T19:51:21.418Z,227.40
2018-01-26T19:53:50.372Z,125.23
2018-01-26T19:56:18.990Z,119.27
2018-01-26T19:58:47.546Z,107.57
2018-01-26T20:01:17.018Z,225.03
2018-01-26T20:04:04.335Z,346.37
2018-01-26T20:06:55.991Z,409.83
2018-01-26T20:09:26.111Z,311.40
2018-01-26T20:12:00.196Z,184.93
2018-01-26T20:14:28.687Z,169.33
2018-01-26T20:16:57.195Z,185.27
2018-01-26T20:19:26.503Z,437.27
2018-01-26T20:21:55.854Z,369.27
2018-01-26T20:24:24.352Z,181.87
2018-01-26T20:26:52.965Z,245.80
2018-01-26T20:29:22.284Z,133.77
2018-01-26T20:31:51.544Z,314.27
2018-01-26T20:34:20.150Z,151.37
2018-01-26T20:36:49.412Z,189.27
2018-01-26T20:39:17.907Z,68.70
2018-01-26T20:41:46.525Z,63.37
2018-01-26T20:44:15.091Z,530.77
2018-01-26T20:46:44.411Z,63.93
2018-01-26T20:49:13.723Z,216.97
2018-01-26T20:51:42.271Z,242.73
2018-01-26T20:54:10.772Z,77.90
2018-01-26T20:56:40.276Z,45.23
2018-01-26T20:59:09.537Z,45.83
2018-01-26T21:01:38.795Z,36.93
2018-01-26T21:04:07.501Z,41.57
2018-01-26T21:06:35.991Z,37.27
2018-01-26T21:09:04.628Z,37.97
2018-01-26T21:11:34.096Z,325.47
2018-01-26T21:14:02.668Z,642.73
2018-01-26T21:16:31.991Z,329.20
2018-01-26T21:19:00.640Z,630.40
2018-01-26T21:21:29.196Z,273.23
2018-01-26T21:23:57.767Z,275.77
2018-01-26T21:26:27.188Z,117.97
2018-01-26T21:28:55.747Z,76.13
2018-01-26T21:31:25.010Z,58.13
2018-01-26T21:33:53.711Z,60.83
2018-01-26T21:36:22.209Z,69.33
2018-01-26T21:38:51.528Z,66.93
2018-01-26T21:41:20.343Z,55.27
2018-01-26T21:43:48.852Z,63.03
2018-01-26T21:46:17.352Z,61.97
2018-01-26T21:48:45.902Z,77.67
2018-01-26T21:51:14.395Z,81.27
2018-01-26T21:53:42.888Z,100.80
2018-01-26T21:56:11.531Z,99.87
2018-01-26T21:58:40.083Z,93.03
2018-01-26T22:01:09.343Z,124.50
2018-01-26T22:03:38.228Z,133.83
2018-01-26T22:06:12.084Z,123.20
2018-01-26T22:08:41.744Z,132.57
2018-01-26T22:11:10.320Z,167.47
2018-01-26T22:13:38.819Z,216.07
2018-01-26T22:16:07.451Z,172.50
2018-01-26T22:18:36.023Z,294.30
2018-01-26T22:21:04.599Z,292.33
2018-01-26T22:23:33.907Z,267.80
2018-01-26T22:26:03.175Z,240.57
2018-01-26T22:28:31.684Z,209.33
2018-01-26T22:31:01.284Z,199.87
2018-01-26T22:33:30.624Z,193.50
2018-01-26T22:35:59.122Z,175.33
2018-01-26T22:38:27.719Z,181.93
2018-01-26T22:40:56.223Z,169.17
2018-01-26T22:43:25.491Z,166.30
2018-01-26T22:45:55.063Z,187.97
2018-01-26T22:48:23.564Z,178.20
2018-01-26T22:50:52.130Z,248.87
2018-01-26T22:53:20.991Z,286.87
2018-01-26T22:55:50.324Z,281.53
2018-01-26T22:58:18.816Z,271.40
2018-01-26T23:00:47.451Z,291.93
2018-01-26T23:03:28.580Z,256.23
2018-01-26T23:05:57.219Z,196.77
2018-01-26T23:08:26.485Z,207.70
2018-01-26T23:10:55.069Z,166.40
2018-01-26T23:13:24.603Z,143.57
2018-01-26T23:15:54.607Z,129.93
2018-01-26T23:18:23.101Z,119.93
2018-01-26T23:20:51.991Z,118.47
2018-01-26T23:23:20.543Z,111.33
2018-01-26T23:25:49.091Z,129.40
2018-01-26T23:28:17.631Z,203.70
2018-01-26T23:30:47.724Z,204.07
2018-01-26T23:33:16.218Z,214.90
2018-01-26T23:35:44.928Z,220.27
2018-01-26T23:38:14.243Z,206.70
2018-01-26T23:40:43.507Z,206.63
2018-01-26T23:43:12.205Z,182.10
2018-01-26T23:45:40.711Z,199.50
2018-01-26T23:48:09.970Z,170.70
2018-01-26T23:50:38.510Z,169.70
2018-01-26T23:53:07.003Z,156.00
2018-01-26T23:55:35.491Z,150.30
2018-01-26T23:58:04.029Z,113.03
